Cruise inventory

FRV Scotia 1394S

Cruise summary report

Cruise Info. 
Ship name (ship code)FRV Scotia (749S)
Cruise identifier1394S
Cruise period1994-09-21 — 1994-09-27
StatusCompleted
Port of departureAberdeen, United Kingdom
Port of returnAberdeen, United Kingdom
Objectives1. To perform hydrographic surveys along the Faroe Bank - Butt of Lewis, Fair Isle-Munken and Nolso-Flugga standard sections.
2. To survey the standard JONSIS, East Shetland (ES) and norther North Sea (EC) sections.
3. Collect radio-caesium samples for analysis by MAFF, Lowestoft.
Chief scientistPhil A Gillibrand (Scottish Office Agriculture Environment and Fisheries Department Aberdeen Marine Laboratory)
Cruise reportFRV Scotia 1394S cruise report sc13_94.pdf — access key 'C' (0.06 MB) 
Ocean/sea areas 
GeneralNorth Sea
North East Atlantic Ocean (limit 40W)
SpecificFaroe Bank - Butt of Lewis, Fair Isle - Munken, Nolso - Flugga, East Shetland and northern North Sea
Track chartsFRV Scotia 1394S cruise track — trk4094.html
Measurements 
Physical oceanography 
Surface measurements underway (T,S)Quantity: track kilometres = 2268.7
Water bottle stationsQuantity: number of stations = 50
CTD stationsQuantity: number of stations = 61
Current profiler (eg ADCP)Quantity: track kilometres = 2268.7
Data held at BODC 
Series/Profiles 
61  CTD/STD cast
Density of the water column
Electrical conductivity of the water column
Vertical spatial coordinates
Salinity of the water column
Temperature of the water column
Density of the water column
Electrical conductivity of the water column
Vertical spatial coordinates
Salinity of the water column
Temperature of the water column

BODC idDate/TimeLocationDoc.
4216231994-09-22 07:47 58° 40' 0" N  6° 9' 49" W  View metadata report for BODC series reference number 421623
4216351994-09-22 09:27 58° 50' 4" N  6° 25' 50" W  View metadata report for BODC series reference number 421635
4216471994-09-22 10:54 59° 0' 2" N  6° 39' 51" W  View metadata report for BODC series reference number 421647
4216591994-09-22 12:11 59° 8' 35" N  6° 46' 24" W  View metadata report for BODC series reference number 421659
4216601994-09-22 12:56 59° 12' 29" N  6° 49' 53" W  View metadata report for BODC series reference number 421660
4216721994-09-22 13:50 59° 17' 0" N  6° 52' 58" W  View metadata report for BODC series reference number 421672
4216841994-09-22 14:52 59° 19' 58" N  6° 55' 54" W  View metadata report for BODC series reference number 421684
4216961994-09-22 17:57 59° 25' 9" N  7° 0' 0" W  View metadata report for BODC series reference number 421696
4217031994-09-22 19:37 59° 31' 0" N  7° 4' 53" W  View metadata report for BODC series reference number 421703
4217151994-09-22 22:08 59° 43' 21" N  7° 15' 9" W  View metadata report for BODC series reference number 421715
4217271994-09-23 08:44 60° 10' 0" N  3° 43' 54" W  View metadata report for BODC series reference number 421727
4217391994-09-23 10:40 60° 15' 59" N  3° 58' 57" W  View metadata report for BODC series reference number 421739
4217401994-09-23 12:02 60° 20' 14" N  4° 9' 29" W  View metadata report for BODC series reference number 421740
4217521994-09-23 13:42 60° 25' 5" N  4° 18' 40" W  View metadata report for BODC series reference number 421752
4217641994-09-23 15:09 60° 28' 57" N  4° 25' 50" W  View metadata report for BODC series reference number 421764
4217761994-09-23 17:37 60° 35' 7" N  4° 44' 45" W  View metadata report for BODC series reference number 421776
4217881994-09-23 19:28 60° 37' 58" N  4° 54' 0" W  View metadata report for BODC series reference number 421788
4218071994-09-23 21:27 60° 42' 59" N  5° 5' 53" W  View metadata report for BODC series reference number 421807
4218191994-09-23 23:24 60° 46' 59" N  5° 15' 45" W  View metadata report for BODC series reference number 421819
4218201994-09-24 02:39 60° 50' 46" N  5° 29' 17" W  View metadata report for BODC series reference number 421820
4218321994-09-24 05:40 61° 1' 55" N  5° 57' 4" W  View metadata report for BODC series reference number 421832
4218441994-09-24 07:55 61° 11' 57" N  6° 22' 14" W  View metadata report for BODC series reference number 421844
4218561994-09-24 12:43 62° 0' 1" N  6° 11' 49" W  View metadata report for BODC series reference number 421856
4218681994-09-24 14:17 61° 53' 57" N  5° 44' 44" W  View metadata report for BODC series reference number 421868
4218811994-09-24 15:53 61° 48' 55" N  5° 21' 7" W  View metadata report for BODC series reference number 421881
4218931994-09-24 17:38 61° 41' 52" N  4° 50' 56" W  View metadata report for BODC series reference number 421893
4219001994-09-24 19:44 61° 34' 54" N  4° 15' 17" W  View metadata report for BODC series reference number 421900
4219121994-09-24 22:27 61° 28' 0" N  3° 42' 2" W  View metadata report for BODC series reference number 421912
4219241994-09-25 01:35 61° 20' 54" N  3° 10' 1" W  View metadata report for BODC series reference number 421924
4219361994-09-25 04:40 61° 13' 48" N  2° 40' 5" W  View metadata report for BODC series reference number 421936
4219481994-09-25 06:37 61° 10' 58" N  2° 25' 3" W  View metadata report for BODC series reference number 421948
4219611994-09-25 08:00 61° 9' 20" N  2° 17' 21" W  View metadata report for BODC series reference number 421961
4219731994-09-25 09:07 61° 8' 6" N  2° 9' 49" W  View metadata report for BODC series reference number 421973
4219851994-09-25 10:58 61° 6' 4" N  2° 1' 18" W  View metadata report for BODC series reference number 421985
4219971994-09-25 12:03 61° 4' 2" N  1° 52' 43" W  View metadata report for BODC series reference number 421997
4220001994-09-25 14:55 60° 56' 3" N  0° 59' 52" W  View metadata report for BODC series reference number 422000
4220121994-09-25 16:14 60° 50' 8" N  0° 44' 13" W  View metadata report for BODC series reference number 422012
4220241994-09-25 16:48 60° 50' 0" N  0° 40' 2" W  View metadata report for BODC series reference number 422024
4220361994-09-25 17:35 60° 49' 57" N  0° 29' 51" W  View metadata report for BODC series reference number 422036
4220481994-09-25 18:23 60° 49' 52" N  0° 19' 57" W  View metadata report for BODC series reference number 422048
4220611994-09-25 19:37 60° 49' 59" N  0° 0' 4" W  View metadata report for BODC series reference number 422061
4220731994-09-25 20:53 60° 50' 1" N  0° 20' 5" E  View metadata report for BODC series reference number 422073
4220851994-09-25 22:06 60° 50' 3" N  0° 39' 59" E  View metadata report for BODC series reference number 422085
4220971994-09-25 23:27 60° 49' 50" N  1° 0' 18" E  View metadata report for BODC series reference number 422097
4221041994-09-26 00:44 60° 50' 10" N  1° 20' 41" E  View metadata report for BODC series reference number 422104
4221161994-09-26 02:13 60° 49' 36" N  1° 40' 13" E  View metadata report for BODC series reference number 422116
4221281994-09-26 03:32 60° 50' 5" N  2° 0' 5" E  View metadata report for BODC series reference number 422128
4221411994-09-26 04:43 60° 49' 52" N  2° 20' 9" E  View metadata report for BODC series reference number 422141
4221531994-09-26 06:00 60° 50' 1" N  2° 40' 11" E  View metadata report for BODC series reference number 422153
4221651994-09-26 07:12 60° 49' 59" N  3° 0' 1" E  View metadata report for BODC series reference number 422165
4221771994-09-26 08:34 60° 49' 57" N  3° 20' 7" E  View metadata report for BODC series reference number 422177
4221891994-09-26 09:48 60° 49' 57" N  3° 40' 10" E  View metadata report for BODC series reference number 422189
4221901994-09-26 11:10 60° 49' 57" N  3° 59' 59" E  View metadata report for BODC series reference number 422190
4222081994-09-26 12:32 60° 50' 1" N  4° 20' 6" E  View metadata report for BODC series reference number 422208
4222211994-09-26 13:32 60° 50' 4" N  4° 30' 3" E  View metadata report for BODC series reference number 422221
4222331994-09-26 14:15 60° 50' 2" N  4° 34' 53" E  View metadata report for BODC series reference number 422233
4222451994-09-27 18:33 58° 8' 4" N  0° 59' 55" W  View metadata report for BODC series reference number 422245
4222571994-09-27 19:48 58° 2' 59" N  1° 14' 59" W  View metadata report for BODC series reference number 422257
4222691994-09-27 20:57 57° 58' 0" N  1° 29' 58" W  View metadata report for BODC series reference number 422269
4222701994-09-27 22:02 57° 52' 59" N  1° 44' 57" W  View metadata report for BODC series reference number 422270
4222821994-09-27 23:08 57° 48' 3" N  2° 0' 17" W  View metadata report for BODC series reference number 422282